Time,TemperatureF,DewpointF,PressureIn,WindDirection,WindDirectionDegrees,WindSpeedMPH,WindSpeedGustMPH,Humidity,HourlyPrecipIn,Conditions,Clouds,dailyrainin,SoftwareType,DateUTC
2013-03-13 00:00:00,59.7,57.7,30.01,WSW,252,0.0,1.0,93,0.00,,---,0.18,VWS V14.01,2013-03-13 04:00:00,
2013-03-13 00:01:00,59.7,57.7,30.01,WSW,250,0.0,1.0,93,0.00,,---,0.18,VWS V14.01,2013-03-13 04:01:00,
2013-03-13 00:06:00,59.4,57.4,30.01,WSW,250,0.0,0.0,93,0.00,,---,0.00,VWS V14.01,2013-03-13 04:06:00,
2013-03-13 00:11:00,59.3,57.3,30.01,SW,236,0.0,1.0,93,0.00,,---,0.00,VWS V14.01,2013-03-13 04:11:00,
2013-03-13 00:16:00,59.2,57.2,30.01,SSW,197,0.0,1.0,93,0.00,,---,0.00,VWS V14.01,2013-03-13 04:16:00,
2013-03-13 00:21:00,59.2,57.5,30.01,West,267,0.0,1.0,94,0.00,,---,0.00,VWS V14.01,2013-03-13 04:21:00,
2013-03-13 00:27:00,59.0,57.3,30.01,West,277,0.0,2.0,94,0.00,,---,0.00,VWS V14.01,2013-03-13 04:27:00,
2013-03-13 00:32:00,58.9,57.2,30.01,West,259,0.0,2.0,94,0.00,,---,0.00,VWS V14.01,2013-03-13 04:32:00,
2013-03-13 00:37:00,58.8,57.1,30.01,SW,228,0.0,1.0,94,0.00,,---,0.00,VWS V14.01,2013-03-13 04:37:00,
2013-03-13 00:42:00,58.7,57.0,30.01,West,273,1.0,2.0,94,0.00,,---,0.00,VWS V14.01,2013-03-13 04:42:00,
2013-03-13 00:47:00,58.6,56.9,30.01,NW,326,0.0,4.0,94,0.00,,---,0.00,VWS V14.01,2013-03-13 04:47:00,
2013-03-13 00:52:00,58.5,56.8,30.01,NW,315,0.0,4.0,94,0.00,,---,0.00,VWS V14.01,2013-03-13 04:52:00,
2013-03-13 00:58:00,58.4,56.7,30.01,NW,319,0.0,0.0,94,0.00,,---,0.00,VWS V14.01,2013-03-13 04:58:00,
2013-03-13 01:03:00,58.2,56.5,30.01,NW,321,0.0,0.0,94,0.00,,---,0.00,VWS V14.01,2013-03-13 05:03:00,
2013-03-13 01:08:00,58.0,56.3,30.01,NNW,347,0.0,1.0,94,0.00,,---,0.00,VWS V14.01,2013-03-13 05:08:00,
2013-03-13 01:13:00,57.9,56.5,30.01,NNW,341,0.0,3.0,95,0.00,,---,0.00,VWS V14.01,2013-03-13 05:13:00,
2013-03-13 01:18:00,57.8,56.4,30.01,NNW,333,0.0,3.0,95,0.00,,---,0.00,VWS V14.01,2013-03-13 05:18:00,
2013-03-13 01:23:00,57.6,56.2,30.01,NW,319,0.0,3.0,95,0.00,,---,0.00,VWS V14.01,2013-03-13 05:23:00,
2013-03-13 01:28:00,57.5,56.1,30.01,WSW,243,0.0,3.0,95,0.00,,---,0.00,VWS V14.01,2013-03-13 05:28:00,
2013-03-13 01:33:00,57.3,55.9,30.01,NNW,330,0.0,1.0,95,0.00,,---,0.00,VWS V14.01,2013-03-13 05:33:00,
2013-03-13 01:38:00,57.2,55.8,30.01,West,264,0.0,4.0,95,0.00,,---,0.00,VWS V14.01,2013-03-13 05:38:00,
2013-03-13 01:43:00,57.0,55.6,30.01,West,263,0.0,4.0,95,0.00,,---,0.00,VWS V14.01,2013-03-13 05:43:00,
2013-03-13 01:48:00,56.9,55.8,30.01,WNW,295,0.0,4.0,96,0.00,,---,0.00,VWS V14.01,2013-03-13 05:48:00,
2013-03-13 01:53:00,56.8,55.7,30.01,NW,314,1.0,4.0,96,0.00,,---,0.00,VWS V14.01,2013-03-13 05:53:00,
2013-03-13 01:58:00,56.7,55.6,30.01,NNW,333,0.0,4.0,96,0.00,,---,0.00,VWS V14.01,2013-03-13 05:58:00,
2013-03-13 02:03:00,56.7,55.6,30.01,WNW,301,0.0,1.0,96,0.00,,---,0.00,VWS V14.01,2013-03-13 06:03:00,
2013-03-13 02:08:00,56.6,55.5,30.02,WNW,301,0.0,3.0,96,0.00,,---,0.00,VWS V14.01,2013-03-13 06:08:00,
2013-03-13 02:13:00,56.6,55.5,30.02,NE,49,2.0,3.0,96,0.00,,---,0.00,VWS V14.01,2013-03-13 06:13:00,
2013-03-13 02:19:00,56.5,55.4,30.02,ESE,104,1.0,5.0,96,0.00,,---,0.00,VWS V14.01,2013-03-13 06:19:00,
2013-03-13 02:24:00,56.5,55.4,30.01,NW,316,0.0,5.0,96,0.00,,---,0.00,VWS V14.01,2013-03-13 06:24:00,
2013-03-13 02:29:00,56.3,55.2,30.01,NNW,335,1.0,5.0,96,0.00,,---,0.00,VWS V14.01,2013-03-13 06:29:00,
2013-03-13 02:34:00,56.3,55.2,30.01,NW,323,0.0,3.0,96,0.00,,---,0.00,VWS V14.01,2013-03-13 06:34:00,
2013-03-13 02:39:00,56.2,55.1,30.01,NNE,12,1.0,3.0,96,0.00,,---,0.00,VWS V14.01,2013-03-13 06:39:00,
2013-03-13 02:44:00,56.1,55.0,30.01,NW,316,3.0,3.0,96,0.00,,---,0.00,VWS V14.01,2013-03-13 06:44:00,
2013-03-13 02:49:00,56.0,54.9,30.01,NW,319,2.0,3.0,96,0.00,,---,0.00,VWS V14.01,2013-03-13 06:49:00,
2013-03-13 02:54:00,55.9,54.8,30.00,North,354,2.0,5.0,96,0.00,,---,0.00,VWS V14.01,2013-03-13 06:54:00,
2013-03-13 02:59:00,55.8,54.7,30.01,NW,312,4.0,5.0,96,0.00,,---,0.00,VWS V14.01,2013-03-13 06:59:00,
2013-03-13 03:04:00,55.7,54.6,30.00,North,353,1.0,5.0,96,0.00,,---,0.00,VWS V14.01,2013-03-13 07:04:00,
2013-03-13 03:09:00,55.6,54.5,30.01,NNW,335,0.0,8.0,96,0.00,,---,0.00,VWS V14.01,2013-03-13 07:09:00,
2013-03-13 03:14:00,55.5,54.4,30.01,NE,46,0.0,8.0,96,0.00,,---,0.00,VWS V14.01,2013-03-13 07:14:00,
2013-03-13 03:19:00,55.5,54.4,30.00,NW,309,0.0,8.0,96,0.00,,---,0.00,VWS V14.01,2013-03-13 07:19:00,
2013-03-13 03:24:00,55.4,54.3,30.01,WNW,295,1.0,8.0,96,0.00,,---,0.00,VWS V14.01,2013-03-13 07:24:00,
2013-03-13 03:29:00,55.3,54.2,30.01,NW,323,0.0,8.0,96,0.00,,---,0.00,VWS V14.01,2013-03-13 07:29:00,
2013-03-13 03:34:00,55.2,54.1,30.01,NW,317,0.0,2.0,96,0.00,,---,0.00,VWS V14.01,2013-03-13 07:34:00,
2013-03-13 03:40:00,55.1,54.0,30.01,NW,316,1.0,4.0,96,0.00,,---,0.00,VWS V14.01,2013-03-13 07:40:00,
2013-03-13 03:44:00,55.0,53.9,30.01,NW,326,2.0,4.0,96,0.00,,---,0.00,VWS V14.01,2013-03-13 07:44:00,
2013-03-13 03:50:00,54.9,53.8,30.01,NNW,329,0.0,4.0,96,0.00,,---,0.00,VWS V14.01,2013-03-13 07:50:00,
2013-03-13 03:55:00,54.8,53.7,30.01,NW,321,0.0,4.0,96,0.00,,---,0.00,VWS V14.01,2013-03-13 07:55:00,
2013-03-13 04:00:00,54.7,53.6,30.01,NNW,334,0.0,4.0,96,0.00,,---,0.00,VWS V14.01,2013-03-13 08:00:00,
2013-03-13 04:05:00,54.5,53.4,30.01,NE,34,0.0,1.0,96,0.00,,---,0.00,VWS V14.01,2013-03-13 08:05:00,
2013-03-13 04:10:00,54.3,53.2,30.01,WNW,301,0.0,2.0,96,0.00,,---,0.00,VWS V14.01,2013-03-13 08:10:00,
2013-03-13 04:15:00,54.2,53.1,30.01,NNW,328,0.0,3.0,96,0.00,,---,0.00,VWS V14.01,2013-03-13 08:15:00,
2013-03-13 04:20:00,54.1,53.0,30.01,NW,323,0.0,3.0,96,0.00,,---,0.00,VWS V14.01,2013-03-13 08:20:00,
2013-03-13 04:25:00,53.9,52.8,30.01,NW,320,0.0,3.0,96,0.00,,---,0.00,VWS V14.01,2013-03-13 08:25:00,
2013-03-13 04:30:00,53.8,52.7,30.01,NW,314,0.0,3.0,96,0.00,,---,0.00,VWS V14.01,2013-03-13 08:30:00,
2013-03-13 04:35:00,53.6,52.5,30.01,NNW,330,2.0,2.0,96,0.00,,---,0.00,VWS V14.01,2013-03-13 08:35:00,
2013-03-13 04:40:00,53.5,52.4,30.01,NW,325,0.0,2.0,96,0.00,,---,0.00,VWS V14.01,2013-03-13 08:40:00,
2013-03-13 04:45:00,53.4,52.3,30.01,NNW,333,0.0,2.0,96,0.00,,---,0.00,VWS V14.01,2013-03-13 08:45:00,
2013-03-13 04:50:00,53.2,52.1,30.01,NW,326,0.0,2.0,96,0.00,,---,0.00,VWS V14.01,2013-03-13 08:50:00,
2013-03-13 04:55:00,53.1,52.0,30.01,NW,326,0.0,2.0,96,0.00,,---,0.00,VWS V14.01,2013-03-13 08:55:00,
2013-03-13 05:00:00,52.9,51.8,30.02,NW,325,0.0,2.0,96,0.00,,---,0.00,VWS V14.01,2013-03-13 09:00:00,
2013-03-13 05:05:00,52.8,51.7,30.02,NW,325,0.0,0.0,96,0.00,,---,0.00,VWS V14.01,2013-03-13 09:05:00,
2013-03-13 05:10:00,52.5,51.4,30.02,NW,325,0.0,0.0,96,0.00,,---,0.00,VWS V14.01,2013-03-13 09:10:00,
2013-03-13 05:15:00,52.3,51.2,30.03,NW,326,0.0,0.0,96,0.00,,---,0.00,VWS V14.01,2013-03-13 09:15:00,
2013-03-13 05:20:00,52.0,50.9,30.03,NW,325,0.0,0.0,96,0.00,,---,0.00,VWS V14.01,2013-03-13 09:20:00,
2013-03-13 05:25:00,51.8,50.7,30.03,NW,326,0.0,0.0,96,0.00,,---,0.00,VWS V14.01,2013-03-13 09:25:00,
2013-03-13 05:30:00,51.9,51.1,30.03,NW,326,0.0,1.0,97,0.00,,---,0.00,VWS V14.01,2013-03-13 09:30:00,
2013-03-13 05:36:00,51.9,51.1,30.03,NW,326,0.0,0.0,97,0.00,,---,0.00,VWS V14.01,2013-03-13 09:36:00,
2013-03-13 05:41:00,51.8,51.0,30.03,NW,326,0.0,0.0,97,0.00,,---,0.00,VWS V14.01,2013-03-13 09:41:00,
2013-03-13 05:46:00,51.6,50.8,30.03,NW,326,0.0,0.0,97,0.00,,---,0.00,VWS V14.01,2013-03-13 09:46:00,
2013-03-13 05:51:00,51.4,50.6,30.03,NW,326,0.0,0.0,97,0.00,,---,0.00,VWS V14.01,2013-03-13 09:51:00,
2013-03-13 05:56:00,51.3,50.5,30.03,NW,326,0.0,0.0,97,0.00,,---,0.00,VWS V14.01,2013-03-13 09:56:00,
2013-03-13 06:01:00,51.1,50.3,30.03,NW,326,0.0,1.0,97,0.00,,---,0.00,VWS V14.01,2013-03-13 10:01:00,
2013-03-13 06:06:00,50.9,50.1,30.04,West,271,0.0,1.0,97,0.00,,---,0.00,VWS V14.01,2013-03-13 10:06:00,
2013-03-13 06:11:00,50.8,50.0,30.04,West,273,0.0,1.0,97,0.00,,---,0.00,VWS V14.01,2013-03-13 10:11:00,
2013-03-13 06:17:00,50.8,50.0,30.04,NW,314,0.0,1.0,97,0.00,,---,0.00,VWS V14.01,2013-03-13 10:17:00,
2013-03-13 06:22:00,50.7,49.9,30.04,West,280,0.0,1.0,97,0.00,,---,0.00,VWS V14.01,2013-03-13 10:22:00,
2013-03-13 06:27:00,50.6,49.8,30.04,WNW,288,0.0,1.0,97,0.00,,---,0.00,VWS V14.01,2013-03-13 10:27:00,
2013-03-13 06:32:00,50.5,49.7,30.05,NNW,333,0.0,0.0,97,0.00,,---,0.00,VWS V14.01,2013-03-13 10:32:00,
2013-03-13 06:37:00,50.4,49.6,30.05,NNW,335,0.0,1.0,97,0.00,,---,0.00,VWS V14.01,2013-03-13 10:37:00,
2013-03-13 06:42:00,50.3,49.5,30.06,NNW,335,0.0,1.0,97,0.00,,---,0.00,VWS V14.01,2013-03-13 10:42:00,
2013-03-13 06:47:00,50.2,49.4,30.06,NW,325,0.0,2.0,97,0.00,,---,0.00,VWS V14.01,2013-03-13 10:47:00,
2013-03-13 06:52:00,50.2,49.1,30.06,NW,325,0.0,2.0,96,0.00,,---,0.00,VWS V14.01,2013-03-13 10:52:00,
2013-03-13 06:57:00,50.1,49.0,30.06,NW,325,0.0,2.0,96,0.00,,---,0.00,VWS V14.01,2013-03-13 10:57:00,
2013-03-13 07:02:00,49.8,48.7,30.06,NW,325,0.0,0.0,96,0.00,,---,0.00,VWS V14.01,2013-03-13 11:02:00,
2013-03-13 07:07:00,49.7,48.6,30.07,NNW,328,0.0,2.0,96,0.00,,---,0.00,VWS V14.01,2013-03-13 11:07:00,
2013-03-13 07:12:00,49.7,48.6,30.07,NW,325,0.0,2.0,96,0.00,,---,0.00,VWS V14.01,2013-03-13 11:12:00,
2013-03-13 07:17:00,49.6,48.5,30.07,NW,325,0.0,2.0,96,0.00,,---,0.00,VWS V14.01,2013-03-13 11:17:00,
2013-03-13 07:23:00,49.5,48.4,30.07,NW,314,0.0,2.0,96,0.00,,---,0.00,VWS V14.01,2013-03-13 11:23:00,
2013-03-13 07:28:00,49.4,48.3,30.07,NW,314,0.0,2.0,96,0.00,,---,0.00,VWS V14.01,2013-03-13 11:28:00,
2013-03-13 07:33:00,49.2,48.1,30.08,NW,314,0.0,0.0,96,0.00,,---,0.00,VWS V14.01,2013-03-13 11:33:00,
2013-03-13 07:38:00,49.1,48.0,30.08,NNW,346,0.0,2.0,96,0.00,,---,0.00,VWS V14.01,2013-03-13 11:38:00,
2013-03-13 07:43:00,49.2,48.1,30.08,NW,325,0.0,2.0,96,0.00,,---,0.00,VWS V14.01,2013-03-13 11:43:00,
2013-03-13 07:48:00,49.2,48.1,30.08,NNW,339,0.0,2.0,96,0.00,,---,0.00,VWS V14.01,2013-03-13 11:48:00,
2013-03-13 07:53:00,49.3,48.2,30.08,NNW,333,1.0,2.0,96,0.00,,---,0.00,VWS V14.01,2013-03-13 11:53:00,
2013-03-13 07:58:00,49.7,48.3,30.08,NNW,328,0.0,3.0,95,0.00,,---,0.00,VWS V14.01,2013-03-13 11:58:00,
2013-03-13 08:03:00,50.0,48.3,30.08,NNW,328,0.0,2.0,94,0.00,,---,0.00,VWS V14.01,2013-03-13 12:03:00,
2013-03-13 08:08:00,50.3,48.4,30.08,WNW,293,0.0,3.0,93,0.00,,---,0.00,VWS V14.01,2013-03-13 12:08:00,
2013-03-13 08:14:00,50.5,48.6,30.08,NNW,327,1.0,3.0,93,0.00,,---,0.00,VWS V14.01,2013-03-13 12:14:00,
2013-03-13 08:19:00,50.9,48.7,30.08,North,355,0.0,3.0,92,0.00,,---,0.00,VWS V14.01,2013-03-13 12:19:00,
2013-03-13 08:24:00,51.2,48.7,30.09,NW,325,0.0,3.0,91,0.00,,---,0.00,VWS V14.01,2013-03-13 12:24:00,
2013-03-13 08:29:00,51.5,48.7,30.09,NW,314,1.0,3.0,90,0.00,,---,0.00,VWS V14.01,2013-03-13 12:29:00,
2013-03-13 08:34:00,52.0,48.9,30.09,NW,321,1.0,3.0,89,0.00,,---,0.00,VWS V14.01,2013-03-13 12:34:00,
2013-03-13 08:39:00,52.4,49.0,30.10,WNW,302,0.0,3.0,88,0.00,,---,0.00,VWS V14.01,2013-03-13 12:39:00,
2013-03-13 08:44:00,52.7,49.0,30.10,NW,322,3.0,7.0,87,0.00,,---,0.00,VWS V14.01,2013-03-13 12:44:00,
2013-03-13 08:49:00,53.1,49.3,30.10,NNW,336,2.0,7.0,87,0.00,,---,0.00,VWS V14.01,2013-03-13 12:49:00,
2013-03-13 08:54:00,53.3,49.2,30.10,NNW,328,2.0,7.0,86,0.00,,---,0.00,VWS V14.01,2013-03-13 12:54:00,
2013-03-13 08:59:00,53.4,49.0,30.10,East,96,0.0,7.0,85,0.00,,---,0.00,VWS V14.01,2013-03-13 12:59:00,
2013-03-13 09:04:00,53.6,48.9,30.10,NW,307,1.0,5.0,84,0.00,,---,0.00,VWS V14.01,2013-03-13 13:04:00,
2013-03-13 09:10:00,53.9,49.2,30.10,WNW,292,2.0,7.0,84,0.00,,---,0.00,VWS V14.01,2013-03-13 13:10:00,
2013-03-13 09:15:00,54.4,49.0,30.11,NW,321,3.0,10.0,82,0.01,,---,0.01,VWS V14.01,2013-03-13 13:15:00,
2013-03-13 09:20:00,54.8,49.4,30.11,WNW,301,0.0,10.0,82,0.01,,---,0.01,VWS V14.01,2013-03-13 13:20:00,
2013-03-13 09:25:00,55.2,49.8,30.11,North,4,9.0,10.0,82,0.01,,---,0.01,VWS V14.01,2013-03-13 13:25:00,
2013-03-13 09:30:00,55.7,50.3,30.11,NNE,23,0.0,10.0,82,0.01,,---,0.01,VWS V14.01,2013-03-13 13:30:00,
2013-03-13 09:35:00,56.3,50.5,30.11,NNW,337,1.0,3.0,81,0.01,,---,0.01,VWS V14.01,2013-03-13 13:35:00,
2013-03-13 09:40:00,56.8,50.0,30.11,NNW,338,3.0,8.0,78,0.01,,---,0.01,VWS V14.01,2013-03-13 13:40:00,
2013-03-13 09:45:00,57.2,50.1,30.11,NW,316,2.0,8.0,77,0.01,,---,0.01,VWS V14.01,2013-03-13 13:45:00,
2013-03-13 09:50:00,57.7,49.8,30.11,NW,326,4.0,8.0,75,0.01,,---,0.01,VWS V14.01,2013-03-13 13:50:00,
2013-03-13 09:55:00,58.2,50.3,30.12,NW,314,3.0,8.0,75,0.01,,---,0.01,VWS V14.01,2013-03-13 13:55:00,
2013-03-13 10:00:00,58.8,50.5,30.12,North,353,3.0,8.0,74,0.01,,---,0.01,VWS V14.01,2013-03-13 14:00:00,
2013-03-13 10:05:00,59.1,50.5,30.12,North,359,4.0,9.0,73,0.01,,---,0.01,VWS V14.01,2013-03-13 14:05:00,
2013-03-13 10:10:00,59.9,51.2,30.12,NW,314,1.0,9.0,73,0.01,,---,0.01,VWS V14.01,2013-03-13 14:10:00,
2013-03-13 10:15:00,60.6,51.2,30.12,WNW,290,2.0,9.0,71,0.01,,---,0.01,VWS V14.01,2013-03-13 14:15:00,
2013-03-13 10:20:00,61.4,51.5,30.12,NW,323,4.0,9.0,70,0.01,,---,0.01,VWS V14.01,2013-03-13 14:20:00,
2013-03-13 10:26:00,61.2,50.2,30.12,NNW,339,3.0,9.0,67,0.01,,---,0.01,VWS V14.01,2013-03-13 14:26:00,
2013-03-13 10:31:00,61.5,51.2,30.13,WNW,294,3.0,9.0,69,0.01,,---,0.01,VWS V14.01,2013-03-13 14:31:00,
2013-03-13 10:36:00,62.2,51.1,30.13,North,359,2.0,6.0,67,0.00,,---,0.01,VWS V14.01,2013-03-13 14:36:00,
2013-03-13 10:41:00,62.7,51.2,30.13,NE,40,3.0,6.0,66,0.00,,---,0.01,VWS V14.01,2013-03-13 14:41:00,
2013-03-13 10:46:00,62.9,49.7,30.13,North,355,2.0,8.0,62,0.00,,---,0.01,VWS V14.01,2013-03-13 14:46:00,
2013-03-13 10:51:00,63.4,50.6,30.13,NNW,339,3.0,9.0,63,0.00,,---,0.01,VWS V14.01,2013-03-13 14:51:00,
2013-03-13 10:57:00,63.7,49.6,30.13,NNW,339,3.0,12.0,60,0.00,,---,0.01,VWS V14.01,2013-03-13 14:57:00,
2013-03-13 11:02:00,64.0,48.9,30.13,NNW,333,2.0,12.0,58,0.00,,---,0.01,VWS V14.01,2013-03-13 15:02:00,
2013-03-13 11:07:00,64.6,48.1,30.13,North,349,6.0,8.0,55,0.00,,---,0.01,VWS V14.01,2013-03-13 15:07:00,
2013-03-13 11:12:00,65.2,48.6,30.13,NNE,26,2.0,8.0,55,0.00,,---,0.01,VWS V14.01,2013-03-13 15:12:00,
2013-03-13 11:17:00,65.7,46.6,30.14,WNW,300,2.0,11.0,50,0.00,,---,0.01,VWS V14.01,2013-03-13 15:17:00,
2013-03-13 11:22:00,65.7,46.6,30.14,North,8,2.0,11.0,50,0.00,,---,0.01,VWS V14.01,2013-03-13 15:22:00,
2013-03-13 11:27:00,66.1,46.4,30.14,NE,50,3.0,11.0,49,0.00,,---,0.01,VWS V14.01,2013-03-13 15:27:00,
2013-03-13 11:32:00,66.2,47.0,30.14,NW,309,6.0,6.0,50,0.00,,---,0.01,VWS V14.01,2013-03-13 15:32:00,
2013-03-13 11:37:00,66.6,46.3,30.14,NW,316,4.0,9.0,48,0.00,,---,0.01,VWS V14.01,2013-03-13 15:37:00,
2013-03-13 11:42:00,67.0,45.6,30.14,NNE,18,4.0,9.0,46,0.00,,---,0.01,VWS V14.01,2013-03-13 15:42:00,
2013-03-13 11:47:00,67.2,45.2,30.14,North,350,7.0,14.0,45,0.00,,---,0.01,VWS V14.01,2013-03-13 15:47:00,
2013-03-13 11:52:00,67.7,44.4,30.14,NE,41,4.0,14.0,43,0.00,,---,0.01,VWS V14.01,2013-03-13 15:52:00,
2013-03-13 11:58:00,68.4,44.4,30.14,NW,316,6.0,14.0,42,0.00,,---,0.01,VWS V14.01,2013-03-13 15:58:00,
2013-03-13 12:03:00,68.3,45.0,30.14,NNW,328,3.0,7.0,43,0.00,,---,0.01,VWS V14.01,2013-03-13 16:03:00,
2013-03-13 12:08:00,68.5,46.9,30.14,NNE,23,3.0,8.0,46,0.00,,---,0.01,VWS V14.01,2013-03-13 16:08:00,
2013-03-13 12:13:00,68.8,44.2,30.14,North,358,5.0,9.0,41,0.00,,---,0.01,VWS V14.01,2013-03-13 16:13:00,
2013-03-13 12:18:00,68.5,45.8,30.14,NE,44,5.0,13.0,44,0.00,,---,0.01,VWS V14.01,2013-03-13 16:18:00,
2013-03-13 12:23:00,68.5,46.3,30.14,NW,325,4.0,13.0,45,0.00,,---,0.01,VWS V14.01,2013-03-13 16:23:00,
2013-03-13 12:28:00,68.8,44.8,30.14,ESE,107,3.0,13.0,42,0.00,,---,0.01,VWS V14.01,2013-03-13 16:28:00,
2013-03-13 12:33:00,68.8,46.0,30.14,NNW,339,4.0,7.0,44,0.00,,---,0.01,VWS V14.01,2013-03-13 16:33:00,
2013-03-13 12:38:00,68.9,44.9,30.14,NE,39,8.0,11.0,42,0.00,,---,0.01,VWS V14.01,2013-03-13 16:38:00,
2013-03-13 12:43:00,69.4,42.7,30.13,NNW,336,6.0,11.0,38,0.00,,---,0.01,VWS V14.01,2013-03-13 16:43:00,
2013-03-13 12:49:00,69.5,43.5,30.13,NW,319,3.0,11.0,39,0.00,,---,0.01,VWS V14.01,2013-03-13 16:49:00,
2013-03-13 12:54:00,69.9,43.2,30.14,NW,316,2.0,11.0,38,0.00,,---,0.01,VWS V14.01,2013-03-13 16:54:00,
2013-03-13 12:59:00,69.9,42.5,30.13,North,357,2.0,11.0,37,0.00,,---,0.01,VWS V14.01,2013-03-13 16:59:00,
2013-03-13 13:04:00,70.3,41.4,30.14,NNE,23,8.0,10.0,35,0.00,,---,0.01,VWS V14.01,2013-03-13 17:04:00,
2013-03-13 13:09:00,70.4,42.9,30.14,NNE,19,4.0,12.0,37,0.00,,---,0.01,VWS V14.01,2013-03-13 17:09:00,
2013-03-13 13:14:00,70.6,43.1,30.13,NNE,26,2.0,12.0,37,0.00,,---,0.01,VWS V14.01,2013-03-13 17:14:00,
2013-03-13 13:19:00,70.5,41.6,30.13,NNW,335,4.0,12.0,35,0.00,,---,0.01,VWS V14.01,2013-03-13 17:19:00,
2013-03-13 13:24:00,70.6,43.1,30.13,NW,325,6.0,12.0,37,0.00,,---,0.01,VWS V14.01,2013-03-13 17:24:00,
2013-03-13 13:29:00,70.1,45.3,30.13,NE,46,8.0,12.0,41,0.00,,---,0.01,VWS V14.01,2013-03-13 17:29:00,
2013-03-13 13:34:00,70.3,48.0,30.13,North,357,1.0,9.0,45,0.00,,---,0.01,VWS V14.01,2013-03-13 17:34:00,
2013-03-13 13:39:00,70.7,46.5,30.12,NE,49,2.0,15.0,42,0.00,,---,0.01,VWS V14.01,2013-03-13 17:39:00,
2013-03-13 13:44:00,70.6,45.8,30.12,NNE,19,7.0,15.0,41,0.00,,---,0.01,VWS V14.01,2013-03-13 17:44:00,
2013-03-13 13:49:00,70.6,47.0,30.12,NE,53,8.0,15.0,43,0.00,,---,0.01,VWS V14.01,2013-03-13 17:49:00,
2013-03-13 13:54:00,70.6,45.8,30.12,ENE,65,13.0,15.0,41,0.00,,---,0.01,VWS V14.01,2013-03-13 17:54:00,
2013-03-13 14:00:00,70.9,41.9,30.11,NNW,329,3.0,15.0,35,0.00,,---,0.01,VWS V14.01,2013-03-13 18:00:00,
2013-03-13 14:05:00,71.1,43.5,30.11,NE,44,9.0,9.0,37,0.00,,---,0.01,VWS V14.01,2013-03-13 18:05:00,
2013-03-13 14:10:00,71.3,44.4,30.11,NNE,29,4.0,13.0,38,0.00,,---,0.01,VWS V14.01,2013-03-13 18:10:00,
2013-03-13 14:15:00,71.0,44.1,30.11,ENE,69,11.0,18.0,38,0.00,,---,0.01,VWS V14.01,2013-03-13 18:15:00,
2013-03-13 14:20:00,70.8,45.3,30.11,NNE,12,4.0,18.0,40,0.00,,---,0.01,VWS V14.01,2013-03-13 18:20:00,
2013-03-13 14:25:00,70.9,46.0,30.10,North,357,2.0,18.0,41,0.00,,---,0.01,VWS V14.01,2013-03-13 18:25:00,
2013-03-13 14:30:00,71.1,46.9,30.10,NE,50,12.0,18.0,42,0.00,,---,0.01,VWS V14.01,2013-03-13 18:30:00,
2013-03-13 14:35:00,71.0,46.8,30.10,NNE,23,3.0,12.0,42,0.00,,---,0.01,VWS V14.01,2013-03-13 18:35:00,
2013-03-13 14:40:00,71.2,47.0,30.10,ENE,58,4.0,15.0,42,0.00,,---,0.01,VWS V14.01,2013-03-13 18:40:00,
2013-03-13 14:45:00,70.8,46.0,30.10,NW,319,5.0,15.0,41,0.00,,---,0.01,VWS V14.01,2013-03-13 18:45:00,
2013-03-13 14:50:00,70.7,45.2,30.10,ENE,75,7.0,15.0,40,0.00,,---,0.01,VWS V14.01,2013-03-13 18:50:00,
2013-03-13 14:55:00,70.4,45.6,30.09,ENE,61,9.0,17.0,41,0.00,,---,0.01,VWS V14.01,2013-03-13 18:55:00,
2013-03-13 15:00:00,70.2,44.8,30.09,ENE,58,9.0,17.0,40,0.00,,---,0.01,VWS V14.01,2013-03-13 19:00:00,
2013-03-13 15:05:00,69.9,43.8,30.09,NE,41,9.0,15.0,39,0.00,,---,0.01,VWS V14.01,2013-03-13 19:05:00,
2013-03-13 15:10:00,70.1,44.7,30.09,ENE,65,6.0,15.0,40,0.00,,---,0.01,VWS V14.01,2013-03-13 19:10:00,
2013-03-13 15:15:00,70.4,44.3,30.09,ENE,77,6.0,15.0,39,0.00,,---,0.01,VWS V14.01,2013-03-13 19:15:00,
2013-03-13 15:20:00,70.3,44.2,30.09,ENE,59,11.0,15.0,39,0.00,,---,0.01,VWS V14.01,2013-03-13 19:20:00,
2013-03-13 15:25:00,70.8,43.3,30.09,NNE,33,7.0,15.0,37,0.00,,---,0.01,VWS V14.01,2013-03-13 19:25:00,
2013-03-13 15:30:00,70.5,43.7,30.08,North,1,2.0,17.0,38,0.00,,---,0.01,VWS V14.01,2013-03-13 19:30:00,
2013-03-13 15:35:00,70.7,43.9,30.08,East,81,4.0,11.0,38,0.00,,---,0.01,VWS V14.01,2013-03-13 19:35:00,
2013-03-13 15:40:00,71.0,43.4,30.08,NE,37,7.0,15.0,37,0.00,,---,0.01,VWS V14.01,2013-03-13 19:40:00,
2013-03-13 15:45:00,70.8,43.3,30.08,North,6,6.0,15.0,37,0.00,,---,0.01,VWS V14.01,2013-03-13 19:45:00,
2013-03-13 15:50:00,71.1,42.8,30.08,NE,54,4.0,15.0,36,0.00,,---,0.01,VWS V14.01,2013-03-13 19:50:00,
2013-03-13 15:56:00,70.7,44.5,30.08,North,4,2.0,15.0,39,0.00,,---,0.01,VWS V14.01,2013-03-13 19:56:00,
2013-03-13 16:01:00,70.8,46.6,30.08,ENE,69,7.0,15.0,42,0.00,,---,0.01,VWS V14.01,2013-03-13 20:01:00,
2013-03-13 16:06:00,70.1,46.6,30.08,NE,56,5.0,14.0,43,0.00,,---,0.01,VWS V14.01,2013-03-13 20:06:00,
2013-03-13 16:11:00,70.5,45.0,30.08,NNW,345,3.0,14.0,40,0.00,,---,0.01,VWS V14.01,2013-03-13 20:11:00,
2013-03-13 16:16:00,70.4,45.0,30.08,ENE,66,9.0,14.0,40,0.00,,---,0.01,VWS V14.01,2013-03-13 20:16:00,
2013-03-13 16:21:00,69.9,46.4,30.07,NE,53,5.0,14.0,43,0.00,,---,0.01,VWS V14.01,2013-03-13 20:21:00,
2013-03-13 16:26:00,69.6,44.9,30.08,NNE,26,4.0,15.0,41,0.00,,---,0.01,VWS V14.01,2013-03-13 20:26:00,
2013-03-13 16:31:00,69.5,45.4,30.07,NNE,18,6.0,15.0,42,0.00,,---,0.01,VWS V14.01,2013-03-13 20:31:00,
2013-03-13 16:36:00,69.2,42.5,30.07,NNE,23,12.0,15.0,38,0.00,,---,0.01,VWS V14.01,2013-03-13 20:36:00,
2013-03-13 16:42:00,69.2,42.5,30.07,NNE,29,4.0,15.0,38,0.00,,---,0.01,VWS V14.01,2013-03-13 20:42:00,
2013-03-13 16:47:00,69.1,41.0,30.07,ENE,66,2.0,15.0,36,0.00,,---,0.01,VWS V14.01,2013-03-13 20:47:00,
2013-03-13 16:52:00,69.4,42.7,30.07,NE,37,6.0,15.0,38,0.00,,---,0.01,VWS V14.01,2013-03-13 20:52:00,
2013-03-13 16:57:00,69.5,42.1,30.07,North,356,6.0,15.0,37,0.00,,---,0.01,VWS V14.01,2013-03-13 20:57:00,
2013-03-13 17:02:00,69.3,43.3,30.07,NE,44,3.0,7.0,39,0.00,,---,0.01,VWS V14.01,2013-03-13 21:02:00,
2013-03-13 17:07:00,68.9,43.0,30.07,NE,40,7.0,10.0,39,0.00,,---,0.01,VWS V14.01,2013-03-13 21:07:00,
2013-03-13 17:12:00,68.8,44.8,30.07,ENE,74,7.0,10.0,42,0.00,,---,0.01,VWS V14.01,2013-03-13 21:12:00,
2013-03-13 17:17:00,68.3,45.6,30.07,NE,44,3.0,12.0,44,0.00,,---,0.01,VWS V14.01,2013-03-13 21:17:00,
2013-03-13 17:22:00,68.1,45.4,30.07,NE,34,9.0,12.0,44,0.00,,---,0.01,VWS V14.01,2013-03-13 21:22:00,
2013-03-13 17:27:00,67.5,46.0,30.07,NE,43,8.0,13.0,46,0.00,,---,0.01,VWS V14.01,2013-03-13 21:27:00,
2013-03-13 17:32:00,67.3,45.8,30.07,NNE,33,7.0,7.0,46,0.00,,---,0.01,VWS V14.01,2013-03-13 21:32:00,
2013-03-13 17:38:00,67.4,45.3,30.07,NE,34,3.0,11.0,45,0.00,,---,0.01,VWS V14.01,2013-03-13 21:38:00,
2013-03-13 17:43:00,67.6,44.9,30.07,NE,46,5.0,11.0,44,0.00,,---,0.01,VWS V14.01,2013-03-13 21:43:00,
2013-03-13 17:48:00,67.1,45.1,30.06,ENE,64,1.0,14.0,45,0.00,,---,0.01,VWS V14.01,2013-03-13 21:48:00,
2013-03-13 17:53:00,66.9,44.9,30.07,ENE,70,7.0,14.0,45,0.00,,---,0.01,VWS V14.01,2013-03-13 21:53:00,
2013-03-13 17:58:00,66.9,44.3,30.06,NE,53,5.0,14.0,44,0.00,,---,0.01,VWS V14.01,2013-03-13 21:58:00,
2013-03-13 18:03:00,66.7,43.5,30.07,NNE,33,9.0,13.0,43,0.00,,---,0.01,VWS V14.01,2013-03-13 22:03:00,
2013-03-13 18:08:00,66.5,44.5,30.07,NE,38,5.0,13.0,45,0.00,,---,0.01,VWS V14.01,2013-03-13 22:08:00,
2013-03-13 18:13:00,66.6,45.2,30.07,NNE,22,3.0,13.0,46,0.00,,---,0.01,VWS V14.01,2013-03-13 22:13:00,
2013-03-13 18:18:00,66.4,45.0,30.07,NNE,15,4.0,13.0,46,0.00,,---,0.01,VWS V14.01,2013-03-13 22:18:00,
2013-03-13 18:23:00,66.3,46.0,30.07,NNE,29,4.0,13.0,48,0.00,,---,0.01,VWS V14.01,2013-03-13 22:23:00,
2013-03-13 18:29:00,66.0,45.2,30.07,NNE,18,3.0,13.0,47,0.00,,---,0.01,VWS V14.01,2013-03-13 22:29:00,
2013-03-13 18:34:00,65.8,46.1,30.07,NNE,15,3.0,8.0,49,0.00,,---,0.01,VWS V14.01,2013-03-13 22:34:00,
2013-03-13 18:39:00,65.5,45.3,30.07,NE,54,5.0,12.0,48,0.00,,---,0.01,VWS V14.01,2013-03-13 22:39:00,
2013-03-13 18:44:00,65.1,46.0,30.07,NE,36,6.0,12.0,50,0.00,,---,0.01,VWS V14.01,2013-03-13 22:44:00,
2013-03-13 18:49:00,64.8,46.3,30.07,ENE,77,5.0,12.0,51,0.00,,---,0.01,VWS V14.01,2013-03-13 22:49:00,
2013-03-13 18:54:00,64.5,46.5,30.07,ENE,59,4.0,12.0,52,0.00,,---,0.01,VWS V14.01,2013-03-13 22:54:00,
2013-03-13 18:59:00,64.3,46.3,30.07,East,79,3.0,12.0,52,0.00,,---,0.01,VWS V14.01,2013-03-13 22:59:00,
2013-03-13 19:04:00,64.1,47.1,30.07,NE,46,5.0,7.0,54,0.00,,---,0.01,VWS V14.01,2013-03-13 23:04:00,
2013-03-13 19:09:00,63.9,47.4,30.07,NNE,33,2.0,7.0,55,0.00,,---,0.01,VWS V14.01,2013-03-13 23:09:00,
2013-03-13 19:14:00,63.7,46.8,30.07,NE,56,4.0,9.0,54,0.00,,---,0.01,VWS V14.01,2013-03-13 23:14:00,
2013-03-13 19:19:00,63.5,47.1,30.07,NNE,29,3.0,9.0,55,0.00,,---,0.01,VWS V14.01,2013-03-13 23:19:00,
2013-03-13 19:24:00,63.3,46.9,30.07,NNE,27,1.0,9.0,55,0.00,,---,0.01,VWS V14.01,2013-03-13 23:24:00,
2013-03-13 19:29:00,63.2,47.3,30.08,ENE,67,1.0,9.0,56,0.00,,---,0.01,VWS V14.01,2013-03-13 23:29:00,
2013-03-13 19:34:00,62.9,47.5,30.08,East,86,1.0,2.0,57,0.00,,---,0.01,VWS V14.01,2013-03-13 23:34:00,
2013-03-13 19:39:00,62.6,47.2,30.08,ENE,72,0.0,4.0,57,0.00,,---,0.01,VWS V14.01,2013-03-13 23:39:00,
2013-03-13 19:44:00,62.2,47.7,30.08,ENE,70,0.0,4.0,59,0.00,,---,0.01,VWS V14.01,2013-03-13 23:44:00,
2013-03-13 19:49:00,61.8,47.8,30.08,ENE,58,0.0,4.0,60,0.00,,---,0.01,VWS V14.01,2013-03-13 23:49:00,
2013-03-13 19:54:00,61.4,47.8,30.08,ENE,65,0.0,4.0,61,0.00,,---,0.01,VWS V14.01,2013-03-13 23:54:00,
2013-03-13 19:59:00,60.9,47.8,30.08,ENE,65,0.0,4.0,62,0.00,,---,0.01,VWS V14.01,2013-03-13 23:59:00,
2013-03-13 20:04:00,60.2,48.0,30.08,ENE,65,0.0,0.0,64,0.00,,---,0.01,VWS V14.01,2013-03-14 00:04:00,
2013-03-13 20:10:00,59.6,47.8,30.08,ENE,65,0.0,0.0,65,0.00,,---,0.01,VWS V14.01,2013-03-14 00:10:00,
2013-03-13 20:15:00,59.0,48.1,30.08,ENE,65,0.0,0.0,67,0.00,,---,0.01,VWS V14.01,2013-03-14 00:15:00,
2013-03-13 20:20:00,58.4,48.3,30.08,ENE,65,0.0,0.0,69,0.00,,---,0.01,VWS V14.01,2013-03-14 00:20:00,
2013-03-13 20:25:00,58.2,48.5,30.09,ENE,65,0.0,0.0,70,0.00,,---,0.01,VWS V14.01,2013-03-14 00:25:00,
2013-03-13 20:30:00,58.0,48.3,30.09,ENE,65,0.0,0.0,70,0.00,,---,0.01,VWS V14.01,2013-03-14 00:30:00,
2013-03-13 20:35:00,57.7,48.8,30.09,ENE,65,0.0,0.0,72,0.00,,---,0.01,VWS V14.01,2013-03-14 00:35:00,
2013-03-13 20:40:00,57.3,48.7,30.09,ENE,65,0.0,0.0,73,0.00,,---,0.01,VWS V14.01,2013-03-14 00:40:00,
2013-03-13 20:45:00,56.8,48.6,30.09,ENE,65,0.0,0.0,74,0.00,,---,0.01,VWS V14.01,2013-03-14 00:45:00,
2013-03-13 20:50:00,56.4,48.6,30.10,ENE,65,0.0,0.0,75,0.00,,---,0.01,VWS V14.01,2013-03-14 00:50:00,
2013-03-13 20:55:00,56.0,48.5,30.10,ENE,65,0.0,0.0,76,0.00,,---,0.01,VWS V14.01,2013-03-14 00:55:00,
2013-03-13 21:00:00,55.7,48.6,30.10,ENE,65,0.0,0.0,77,0.00,,---,0.01,VWS V14.01,2013-03-14 01:00:00,
2013-03-13 21:05:00,55.3,48.6,30.11,ENE,65,0.0,0.0,78,0.00,,---,0.01,VWS V14.01,2013-03-14 01:05:00,
2013-03-13 21:10:00,54.9,48.5,30.11,ENE,65,0.0,0.0,79,0.00,,---,0.01,VWS V14.01,2013-03-14 01:10:00,
2013-03-13 21:15:00,54.5,48.1,30.11,ENE,65,0.0,0.0,79,0.00,,---,0.01,VWS V14.01,2013-03-14 01:15:00,
2013-03-13 21:20:00,54.1,48.4,30.11,ENE,65,0.0,0.0,81,0.00,,---,0.01,VWS V14.01,2013-03-14 01:20:00,
2013-03-13 21:25:00,53.8,48.1,30.11,ENE,65,0.0,0.0,81,0.00,,---,0.01,VWS V14.01,2013-03-14 01:25:00,
2013-03-13 21:30:00,53.5,48.2,30.11,ENE,65,0.0,0.0,82,0.00,,---,0.01,VWS V14.01,2013-03-14 01:30:00,
2013-03-13 21:35:00,53.2,48.2,30.12,ENE,65,0.0,0.0,83,0.00,,---,0.01,VWS V14.01,2013-03-14 01:35:00,
2013-03-13 21:40:00,52.8,47.8,30.12,ENE,65,0.0,0.0,83,0.00,,---,0.01,VWS V14.01,2013-03-14 01:40:00,
2013-03-13 21:46:00,52.5,47.5,30.12,ENE,65,0.0,0.0,83,0.00,,---,0.01,VWS V14.01,2013-03-14 01:46:00,
2013-03-13 21:51:00,52.2,47.5,30.12,ENE,65,0.0,0.0,84,0.00,,---,0.01,VWS V14.01,2013-03-14 01:51:00,
2013-03-13 21:56:00,52.0,47.3,30.12,ENE,65,0.0,0.0,84,0.00,,---,0.01,VWS V14.01,2013-03-14 01:56:00,
2013-03-13 22:01:00,51.8,47.8,30.12,ENE,65,0.0,0.0,86,0.00,,---,0.01,VWS V14.01,2013-03-14 02:01:00,
2013-03-13 22:07:00,51.6,47.6,30.12,ENE,65,0.0,0.0,86,0.00,,---,0.01,VWS V14.01,2013-03-14 02:07:00,
2013-03-13 22:12:00,51.4,47.4,30.13,ENE,65,0.0,0.0,86,0.00,,---,0.01,VWS V14.01,2013-03-14 02:12:00,
2013-03-13 22:17:00,51.3,47.6,30.13,ENE,65,0.0,0.0,87,0.00,,---,0.01,VWS V14.01,2013-03-14 02:17:00,
2013-03-13 22:22:00,51.2,47.5,30.13,ENE,65,0.0,0.0,87,0.00,,---,0.01,VWS V14.01,2013-03-14 02:22:00,
2013-03-13 22:27:00,51.1,47.4,30.13,ENE,65,0.0,0.0,87,0.00,,---,0.01,VWS V14.01,2013-03-14 02:27:00,
2013-03-13 22:32:00,51.0,47.6,30.13,ENE,65,0.0,0.0,88,0.00,,---,0.01,VWS V14.01,2013-03-14 02:32:00,
2013-03-13 22:37:00,50.9,47.5,30.13,ENE,65,0.0,0.0,88,0.00,,---,0.01,VWS V14.01,2013-03-14 02:37:00,
2013-03-13 22:42:00,50.8,47.4,30.13,ENE,65,0.0,0.0,88,0.00,,---,0.01,VWS V14.01,2013-03-14 02:42:00,
2013-03-13 22:47:00,50.6,47.2,30.14,ENE,65,0.0,0.0,88,0.00,,---,0.01,VWS V14.01,2013-03-14 02:47:00,
2013-03-13 22:52:00,50.5,47.1,30.14,ENE,65,0.0,0.0,88,0.00,,---,0.01,VWS V14.01,2013-03-14 02:52:00,
2013-03-13 22:57:00,50.5,47.4,30.15,NE,51,0.0,0.0,89,0.00,,---,0.01,VWS V14.01,2013-03-14 02:57:00,
2013-03-13 23:03:00,50.8,47.7,30.15,NNW,346,0.0,0.0,89,0.00,,---,0.01,VWS V14.01,2013-03-14 03:03:00,
2013-03-13 23:08:00,51.0,47.6,30.15,NNW,347,0.0,0.0,88,0.00,,---,0.01,VWS V14.01,2013-03-14 03:08:00,
2013-03-13 23:13:00,51.1,47.7,30.16,NNW,347,0.0,1.0,88,0.00,,---,0.01,VWS V14.01,2013-03-14 03:13:00,
2013-03-13 23:18:00,51.3,47.9,30.16,NNW,347,0.0,1.0,88,0.00,,---,0.01,VWS V14.01,2013-03-14 03:18:00,
2013-03-13 23:23:00,51.4,48.0,30.16,NNW,347,0.0,1.0,88,0.00,,---,0.01,VWS V14.01,2013-03-14 03:23:00,
2013-03-13 23:28:00,51.4,48.0,30.16,NNW,347,0.0,1.0,88,0.00,,---,0.01,VWS V14.01,2013-03-14 03:28:00,
2013-03-13 23:33:00,51.6,48.2,30.16,NNW,345,0.0,1.0,88,0.00,,---,0.01,VWS V14.01,2013-03-14 03:33:00,
2013-03-13 23:38:00,51.9,48.2,30.16,NNW,345,0.0,1.0,87,0.00,,---,0.01,VWS V14.01,2013-03-14 03:38:00,
2013-03-13 23:43:00,51.9,47.8,30.16,NNW,344,0.0,1.0,86,0.00,,---,0.01,VWS V14.01,2013-03-14 03:43:00,
2013-03-13 23:48:00,51.7,47.7,30.16,NNW,344,0.0,1.0,86,0.00,,---,0.01,VWS V14.01,2013-03-14 03:48:00,
2013-03-13 23:53:00,51.5,47.8,30.16,NNW,346,0.0,1.0,87,0.00,,---,0.01,VWS V14.01,2013-03-14 03:53:00,
2013-03-13 23:58:00,51.4,47.7,30.16,NNW,346,0.0,1.0,87,0.00,,---,0.01,VWS V14.01,2013-03-14 03:58:00,